createdAt,value
2023-04-30T00:00:19.882Z,99.90
2023-04-30T00:02:47.836Z,99.90
2023-04-30T00:05:16.072Z,99.90
2023-04-30T00:07:44.099Z,99.90
2023-04-30T00:10:13.722Z,99.90
2023-04-30T00:12:41.628Z,99.90
2023-04-30T00:15:10.483Z,99.90
2023-04-30T00:17:38.450Z,99.90
2023-04-30T00:20:08.311Z,99.90
2023-04-30T00:22:36.132Z,99.90
2023-04-30T00:25:04.035Z,99.90
2023-04-30T00:27:33.272Z,99.90
2023-04-30T00:30:01.222Z,99.90
2023-04-30T00:32:29.090Z,99.90
2023-04-30T00:34:57.077Z,99.90
2023-04-30T00:37:25.010Z,99.90
2023-04-30T00:39:53.145Z,99.90
2023-04-30T00:42:21.083Z,99.90
2023-04-30T00:44:50.297Z,99.90
2023-04-30T00:47:18.329Z,99.90
2023-04-30T00:49:46.523Z,99.90
2023-04-30T00:52:14.851Z,99.90
2023-04-30T00:54:42.895Z,99.90
2023-04-30T00:57:13.709Z,99.90
2023-04-30T00:59:42.965Z,99.90
2023-04-30T01:02:12.507Z,99.90
2023-04-30T01:04:40.595Z,99.90
2023-04-30T01:07:08.719Z,99.90
2023-04-30T01:09:36.705Z,99.90
2023-04-30T01:12:11.267Z,99.90
2023-04-30T01:14:47.041Z,99.90
2023-04-30T01:17:18.728Z,99.90
2023-04-30T01:19:47.521Z,99.90
2023-04-30T01:22:26.907Z,99.90
2023-04-30T01:25:12.250Z,99.90
2023-04-30T01:28:02.694Z,99.90
2023-04-30T01:30:32.308Z,99.90
2023-04-30T01:33:00.755Z,99.90
2023-04-30T01:35:45.189Z,99.90
2023-04-30T01:38:26.149Z,99.90
2023-04-30T01:41:00.284Z,99.90
2023-04-30T01:43:39.319Z,99.90
2023-04-30T01:46:19.920Z,99.90
2023-04-30T01:48:56.051Z,99.90
2023-04-30T01:51:31.054Z,99.90
2023-04-30T01:54:04.237Z,99.90
2023-04-30T01:56:35.870Z,99.90
2023-04-30T01:59:06.059Z,99.90
2023-04-30T02:01:34.927Z,99.90
2023-04-30T02:04:03.865Z,99.90
2023-04-30T02:06:31.898Z,99.90
2023-04-30T02:09:03.522Z,99.90
2023-04-30T02:11:31.955Z,99.90
2023-04-30T02:14:00.020Z,99.90
2023-04-30T02:16:29.639Z,99.90
2023-04-30T02:18:57.860Z,99.90
2023-04-30T02:21:25.801Z,99.90
2023-04-30T02:23:53.915Z,99.90
2023-04-30T02:26:22.411Z,99.90
2023-04-30T02:28:50.426Z,99.90
2023-04-30T02:31:18.305Z,99.90
2023-04-30T02:33:48.337Z,99.90
2023-04-30T02:36:16.265Z,99.90
2023-04-30T02:38:44.147Z,99.90
2023-04-30T02:41:12.015Z,99.90
2023-04-30T02:43:40.509Z,99.90
2023-04-30T02:46:08.492Z,99.90
2023-04-30T02:48:36.338Z,99.90
2023-04-30T02:51:06.188Z,99.90
2023-04-30T02:53:34.098Z,99.90
2023-04-30T02:56:02.108Z,99.90
2023-04-30T02:58:30.038Z,99.90
2023-04-30T03:00:58.106Z,99.90
2023-04-30T03:03:26.299Z,99.90
2023-04-30T03:05:56.682Z,99.90
2023-04-30T03:08:26.404Z,99.90
2023-04-30T03:10:54.504Z,99.90
2023-04-30T03:13:22.493Z,99.90
2023-04-30T03:15:50.424Z,99.90
2023-04-30T03:18:18.689Z,99.90
2023-04-30T03:20:46.584Z,99.90
2023-04-30T03:23:14.990Z,99.90
2023-04-30T03:25:44.289Z,99.90
2023-04-30T03:28:12.404Z,99.90
2023-04-30T03:30:40.432Z,99.90
2023-04-30T03:33:08.560Z,99.90
2023-04-30T03:35:36.493Z,99.90
2023-04-30T03:38:04.371Z,99.90
2023-04-30T03:40:32.590Z,99.90
2023-04-30T03:43:02.020Z,99.90
2023-04-30T03:45:29.952Z,99.90
2023-04-30T03:47:57.908Z,99.90
2023-04-30T03:50:26.086Z,99.90
2023-04-30T03:52:54.003Z,99.90
2023-04-30T03:55:22.269Z,99.90
2023-04-30T03:57:50.583Z,99.90
2023-04-30T04:00:20.663Z,99.90
2023-04-30T04:02:52.748Z,99.90
2023-04-30T04:05:20.672Z,99.90
2023-04-30T04:07:48.602Z,99.90
2023-04-30T04:10:16.595Z,99.90
2023-04-30T04:12:44.847Z,99.90
2023-04-30T04:15:13.401Z,99.90
2023-04-30T04:17:43.020Z,99.90
2023-04-30T04:20:14.142Z,99.90
2023-04-30T04:22:43.381Z,99.90
2023-04-30T04:25:11.976Z,99.90
2023-04-30T04:27:40.521Z,99.90
2023-04-30T04:30:09.303Z,99.90
2023-04-30T04:32:42.286Z,99.90
2023-04-30T04:35:12.015Z,99.90
2023-04-30T04:37:40.087Z,99.90
2023-04-30T04:40:09.424Z,99.90
2023-04-30T04:42:38.310Z,99.90
2023-04-30T04:45:07.781Z,99.90
2023-04-30T04:47:36.483Z,99.90
2023-04-30T04:50:04.717Z,99.90
2023-04-30T04:52:34.015Z,99.90
2023-04-30T04:55:01.975Z,99.90
2023-04-30T04:57:29.918Z,99.90
2023-04-30T04:59:58.136Z,99.90
2023-04-30T05:02:26.295Z,99.90
2023-04-30T05:04:54.267Z,99.90
2023-04-30T05:07:22.129Z,99.90
2023-04-30T05:09:51.381Z,99.90
2023-04-30T05:12:19.224Z,99.90
2023-04-30T05:14:47.753Z,99.90
2023-04-30T05:17:15.853Z,99.90
2023-04-30T05:19:43.818Z,99.90
2023-04-30T05:22:11.737Z,99.90
2023-04-30T05:24:39.571Z,99.90
2023-04-30T05:27:08.793Z,99.90
2023-04-30T05:29:36.700Z,99.90
2023-04-30T05:32:04.747Z,99.90
2023-04-30T05:34:32.692Z,99.90
2023-04-30T05:37:01.601Z,99.90
2023-04-30T05:39:29.493Z,99.90
2023-04-30T05:41:57.348Z,99.90
2023-04-30T05:44:26.710Z,99.90
2023-04-30T05:46:54.498Z,99.90
2023-04-30T05:49:22.396Z,99.90
2023-04-30T05:51:50.340Z,99.90
2023-04-30T05:54:18.532Z,99.90
2023-04-30T05:56:46.528Z,99.90
2023-04-30T05:59:14.450Z,99.90
2023-04-30T06:01:43.842Z,99.90
2023-04-30T06:04:12.454Z,99.90
2023-04-30T06:06:40.449Z,99.90
2023-04-30T06:09:08.467Z,99.90
2023-04-30T06:11:37.289Z,99.90
2023-04-30T06:14:05.571Z,99.90
2023-04-30T06:16:33.567Z,99.90
2023-04-30T06:19:03.171Z,99.90
2023-04-30T06:21:31.903Z,99.90
2023-04-30T06:23:59.821Z,99.90
2023-04-30T06:26:28.010Z,99.90
2023-04-30T06:28:56.027Z,99.90
2023-04-30T06:31:24.152Z,99.90
2023-04-30T06:33:52.594Z,99.90
2023-04-30T06:36:21.790Z,99.90
2023-04-30T06:38:49.691Z,99.90
2023-04-30T06:41:17.529Z,99.90
2023-04-30T06:43:45.586Z,99.90
2023-04-30T06:46:15.185Z,99.90
2023-04-30T06:48:43.189Z,99.90
2023-04-30T06:51:11.143Z,99.90
2023-04-30T06:53:40.443Z,99.90
2023-04-30T06:56:09.077Z,99.90
2023-04-30T06:58:36.947Z,99.90
2023-04-30T07:01:05.172Z,99.90
2023-04-30T07:03:33.771Z,99.90
2023-04-30T07:06:01.728Z,99.90
2023-04-30T07:08:29.568Z,99.90
2023-04-30T07:10:58.964Z,99.90
2023-04-30T07:13:26.848Z,99.90
2023-04-30T07:15:55.514Z,99.90
2023-04-30T07:18:23.428Z,99.90
2023-04-30T07:20:51.405Z,99.90
2023-04-30T07:23:19.423Z,99.90
2023-04-30T07:25:47.347Z,99.90
2023-04-30T07:28:16.749Z,99.90
2023-04-30T07:30:44.681Z,99.90
2023-04-30T07:33:14.220Z,99.90
2023-04-30T07:35:42.196Z,99.90
2023-04-30T07:38:10.059Z,99.90
2023-04-30T07:40:38.108Z,99.90
2023-04-30T07:43:06.634Z,99.90
2023-04-30T07:45:37.483Z,99.90
2023-04-30T07:48:05.878Z,99.90
2023-04-30T07:50:35.030Z,99.90
2023-04-30T07:53:03.347Z,99.90
2023-04-30T07:55:31.456Z,99.90
2023-04-30T07:57:59.867Z,99.90
2023-04-30T08:00:29.443Z,99.90
2023-04-30T08:02:59.364Z,99.90
2023-04-30T08:05:27.528Z,99.90
2023-04-30T08:07:55.391Z,99.90
2023-04-30T08:10:23.495Z,99.90
2023-04-30T08:12:51.413Z,99.90
2023-04-30T08:15:21.786Z,99.90
2023-04-30T08:17:50.963Z,99.90
2023-04-30T08:20:20.495Z,99.90
2023-04-30T08:22:48.515Z,99.90
2023-04-30T08:25:16.379Z,99.90
2023-04-30T08:27:44.251Z,99.90
2023-04-30T08:30:12.825Z,99.90
2023-04-30T08:32:41.471Z,99.90
2023-04-30T08:35:10.652Z,99.90
2023-04-30T08:37:40.004Z,99.90
2023-04-30T08:40:11.645Z,99.90
2023-04-30T08:42:47.363Z,99.90
2023-04-30T08:45:16.276Z,99.90
2023-04-30T08:47:46.368Z,99.90
2023-04-30T08:50:14.392Z,99.90
2023-04-30T08:52:44.724Z,99.90
2023-04-30T08:55:12.829Z,99.90
2023-04-30T08:57:40.711Z,99.90
2023-04-30T09:00:09.806Z,97.10
2023-04-30T09:02:41.742Z,96.10
2023-04-30T09:05:12.558Z,99.90
2023-04-30T09:08:01.199Z,99.30
2023-04-30T09:10:34.584Z,98.90
2023-04-30T09:13:03.962Z,99.90
2023-04-30T09:15:32.890Z,99.90
2023-04-30T09:18:08.981Z,95.10
2023-04-30T09:20:37.220Z,87.50
2023-04-30T09:23:11.473Z,84.80
2023-04-30T09:25:40.447Z,87.50
2023-04-30T09:28:10.407Z,88.90
2023-04-30T09:30:39.220Z,84.90
2023-04-30T09:33:10.771Z,86.70
2023-04-30T09:35:41.736Z,74.70
2023-04-30T09:38:27.543Z,75.50
2023-04-30T09:40:55.454Z,72.20
2023-04-30T09:43:23.420Z,62.90
2023-04-30T09:45:51.649Z,63.40
2023-04-30T09:48:22.562Z,65.30
2023-04-30T09:50:51.163Z,63.20
2023-04-30T09:53:21.161Z,65.30
2023-04-30T09:55:51.375Z,67.70
2023-04-30T09:58:20.678Z,67.40
2023-04-30T10:00:51.463Z,66.70
2023-04-30T10:03:21.593Z,65.00
2023-04-30T10:05:52.109Z,68.20
2023-04-30T10:08:28.442Z,70.70
2023-04-30T10:11:01.249Z,67.50
2023-04-30T10:13:32.867Z,68.20
2023-04-30T10:16:08.564Z,73.90
2023-04-30T10:18:38.523Z,71.00
2023-04-30T10:21:12.088Z,68.90
2023-04-30T10:23:43.896Z,70.80
2023-04-30T10:26:12.436Z,72.10
2023-04-30T10:28:40.911Z,70.60
2023-04-30T10:31:10.827Z,70.80
2023-04-30T10:33:49.918Z,70.30
2023-04-30T10:36:27.851Z,78.30
2023-04-30T10:38:57.917Z,85.70
2023-04-30T10:41:27.981Z,83.90
2023-04-30T10:43:59.503Z,87.00
2023-04-30T10:46:29.500Z,90.40
2023-04-30T10:48:57.392Z,91.50
2023-04-30T10:51:25.532Z,94.00
2023-04-30T10:53:55.700Z,93.90
2023-04-30T10:56:32.887Z,93.80
2023-04-30T10:59:02.380Z,95.60
2023-04-30T11:01:31.230Z,94.80
2023-04-30T11:04:06.865Z,95.30
2023-04-30T11:06:50.167Z,97.10
2023-04-30T11:09:18.101Z,96.20
2023-04-30T11:11:47.559Z,96.00
2023-04-30T11:14:22.927Z,98.60
2023-04-30T11:16:51.346Z,98.50
2023-04-30T11:19:24.877Z,98.60
2023-04-30T11:22:17.322Z,98.70
2023-04-30T11:25:05.738Z,97.70
2023-04-30T11:27:36.198Z,97.60
2023-04-30T11:30:10.656Z,99.30
2023-04-30T11:32:39.847Z,99.40
2023-04-30T11:35:09.000Z,98.00
2023-04-30T11:37:38.651Z,99.70
2023-04-30T11:40:08.738Z,99.40
2023-04-30T11:42:39.439Z,97.70
2023-04-30T11:45:09.400Z,98.70
2023-04-30T11:47:41.722Z,97.80
2023-04-30T11:50:10.732Z,99.50
2023-04-30T11:52:39.072Z,98.90
2023-04-30T11:55:09.147Z,99.80
2023-04-30T11:57:42.836Z,98.20
2023-04-30T12:00:15.336Z,98.70
2023-04-30T12:02:44.573Z,99.40
2023-04-30T12:05:17.622Z,97.90
2023-04-30T12:07:50.350Z,97.70
2023-04-30T12:10:21.049Z,98.30
2023-04-30T12:12:52.959Z,98.30
2023-04-30T12:15:26.452Z,99.40
2023-04-30T12:17:55.986Z,98.10
2023-04-30T12:20:29.229Z,99.10
2023-04-30T12:22:57.871Z,99.10
2023-04-30T12:25:29.692Z,98.30
2023-04-30T12:28:00.679Z,97.70
2023-04-30T12:30:28.841Z,97.40
2023-04-30T12:32:59.775Z,97.00
2023-04-30T12:35:31.138Z,97.70
2023-04-30T12:38:04.448Z,96.50
2023-04-30T12:40:33.171Z,97.40
2023-04-30T12:43:03.787Z,96.60
2023-04-30T12:45:51.520Z,97.20
2023-04-30T12:48:21.357Z,96.30
2023-04-30T12:50:52.464Z,95.20
2023-04-30T12:53:20.769Z,95.70
2023-04-30T12:56:13.753Z,95.40
2023-04-30T12:58:45.577Z,95.70
2023-04-30T13:01:15.121Z,95.60
2023-04-30T13:03:43.325Z,93.90
2023-04-30T13:06:11.691Z,93.20
2023-04-30T13:08:50.387Z,93.90
2023-04-30T13:11:27.782Z,94.10
2023-04-30T13:13:57.268Z,94.00
2023-04-30T13:16:26.313Z,93.40
2023-04-30T13:18:54.568Z,92.60
2023-04-30T13:21:22.653Z,91.80
2023-04-30T13:23:54.329Z,93.30
2023-04-30T13:26:23.734Z,92.70
2023-04-30T13:28:51.950Z,93.20
2023-04-30T13:31:22.493Z,94.60
2023-04-30T13:33:51.090Z,93.80
2023-04-30T13:36:19.030Z,94.90
2023-04-30T13:38:47.057Z,94.20
2023-04-30T13:41:15.122Z,93.70
2023-04-30T13:43:44.695Z,94.60
2023-04-30T13:46:12.855Z,95.20
2023-04-30T13:48:42.733Z,95.10
2023-04-30T13:51:10.894Z,93.70
2023-04-30T13:53:38.821Z,94.30
2023-04-30T13:56:07.441Z,95.10
2023-04-30T13:58:35.378Z,94.00
2023-04-30T14:01:03.710Z,94.10
2023-04-30T14:03:32.056Z,93.10
2023-04-30T14:06:01.807Z,94.20
2023-04-30T14:08:31.090Z,92.20
2023-04-30T14:10:59.095Z,91.40
2023-04-30T14:13:27.785Z,91.50
2023-04-30T14:15:56.192Z,92.40
2023-04-30T14:18:24.258Z,92.30
2023-04-30T14:20:52.285Z,91.30
2023-04-30T14:23:21.549Z,91.20
2023-04-30T14:25:49.659Z,91.70
2023-04-30T14:28:18.066Z,90.70
2023-04-30T14:30:46.013Z,89.50
2023-04-30T14:33:14.758Z,86.70
2023-04-30T14:35:42.710Z,86.50
2023-04-30T14:38:10.608Z,85.50
2023-04-30T14:40:39.877Z,87.40
2023-04-30T14:43:07.932Z,86.80
2023-04-30T14:45:36.057Z,86.10
2023-04-30T14:48:05.705Z,85.70
2023-04-30T14:50:34.024Z,85.10
2023-04-30T14:53:02.047Z,87.90
2023-04-30T14:55:30.306Z,87.50
2023-04-30T14:58:00.983Z,86.60
2023-04-30T15:00:29.164Z,86.80
2023-04-30T15:02:57.284Z,87.30
2023-04-30T15:05:26.213Z,87.20
2023-04-30T15:07:54.176Z,85.80
2023-04-30T15:10:22.291Z,84.70
2023-04-30T15:12:50.325Z,86.60
2023-04-30T15:15:22.713Z,85.70
2023-04-30T15:17:50.722Z,86.00
2023-04-30T15:20:18.763Z,87.30
2023-04-30T15:22:46.938Z,87.60
2023-04-30T15:25:15.533Z,88.20
2023-04-30T15:27:43.642Z,87.80
2023-04-30T15:30:12.075Z,86.80
2023-04-30T15:32:41.674Z,85.10
2023-04-30T15:35:10.713Z,85.70
2023-04-30T15:37:38.638Z,86.40
2023-04-30T15:40:08.485Z,85.00
2023-04-30T15:42:37.427Z,85.20
2023-04-30T15:45:06.026Z,86.50
2023-04-30T15:47:34.893Z,87.10
2023-04-30T15:50:04.576Z,85.40
2023-04-30T15:52:32.456Z,86.60
2023-04-30T15:55:00.715Z,86.40
2023-04-30T15:57:28.698Z,86.20
2023-04-30T15:59:58.308Z,87.40
2023-04-30T16:02:26.417Z,86.90
2023-04-30T16:04:55.467Z,85.80
2023-04-30T16:07:25.196Z,85.00
2023-04-30T16:09:53.383Z,84.90
2023-04-30T16:12:22.632Z,84.20
2023-04-30T16:14:51.252Z,83.10
2023-04-30T16:17:19.387Z,82.70
2023-04-30T16:19:47.407Z,83.00
2023-04-30T16:22:17.130Z,82.80
2023-04-30T16:24:46.392Z,84.40
2023-04-30T16:27:14.317Z,84.70
2023-04-30T16:29:42.388Z,85.70
2023-04-30T16:32:10.454Z,84.20
2023-04-30T16:34:38.891Z,84.80
2023-04-30T16:37:06.771Z,84.70
2023-04-30T16:39:34.994Z,83.20
2023-04-30T16:42:04.463Z,84.60
2023-04-30T16:44:32.358Z,82.90
2023-04-30T16:47:00.335Z,83.60
2023-04-30T16:49:28.213Z,84.20
2023-04-30T16:51:56.339Z,84.20
2023-04-30T16:54:24.588Z,84.60
2023-04-30T16:56:52.635Z,85.70
2023-04-30T16:59:25.332Z,85.10
2023-04-30T17:01:56.536Z,85.40
2023-04-30T17:04:24.836Z,87.20
2023-04-30T17:06:53.033Z,88.50
2023-04-30T17:09:21.164Z,86.30
2023-04-30T17:11:49.148Z,85.70
2023-04-30T17:14:17.697Z,85.50
2023-04-30T17:16:47.121Z,86.00
2023-04-30T17:19:15.562Z,85.40
2023-04-30T17:21:43.645Z,85.00
2023-04-30T17:24:11.653Z,85.00
2023-04-30T17:26:39.870Z,84.80
2023-04-30T17:29:08.050Z,85.30
2023-04-30T17:31:36.286Z,85.90
2023-04-30T17:34:05.733Z,85.40
2023-04-30T17:36:34.924Z,86.40
2023-04-30T17:39:05.682Z,86.90
2023-04-30T17:41:33.742Z,87.30
2023-04-30T17:44:03.264Z,88.00
2023-04-30T17:46:31.380Z,88.20
2023-04-30T17:49:01.539Z,88.20
2023-04-30T17:51:32.049Z,89.30
2023-04-30T17:54:00.315Z,89.40
2023-04-30T17:56:29.981Z,90.10
2023-04-30T17:58:58.351Z,90.60
2023-04-30T18:01:27.079Z,91.30
2023-04-30T18:03:55.498Z,91.40
2023-04-30T18:06:28.097Z,91.90
2023-04-30T18:09:01.125Z,92.40
2023-04-30T18:11:29.237Z,92.80
2023-04-30T18:13:57.128Z,93.10
2023-04-30T18:16:25.107Z,93.50
2023-04-30T18:18:53.076Z,94.00
2023-04-30T18:21:21.422Z,94.50
2023-04-30T18:23:49.981Z,95.00
2023-04-30T18:26:24.186Z,95.80
2023-04-30T18:28:53.245Z,96.60
2023-04-30T18:31:21.572Z,97.70
2023-04-30T18:33:49.752Z,98.80
2023-04-30T18:36:18.690Z,99.90
2023-04-30T18:38:46.730Z,99.90
2023-04-30T18:41:14.825Z,99.90
2023-04-30T18:43:44.865Z,99.90
2023-04-30T18:46:12.904Z,99.90
2023-04-30T18:48:40.789Z,99.90
2023-04-30T18:51:08.732Z,99.90
2023-04-30T18:53:37.918Z,99.90
2023-04-30T18:56:06.489Z,99.90
2023-04-30T18:58:34.999Z,99.90
2023-04-30T19:01:04.612Z,99.90
2023-04-30T19:03:34.144Z,99.90
2023-04-30T19:06:02.596Z,99.90
2023-04-30T19:08:30.659Z,99.90
2023-04-30T19:10:58.785Z,99.90
2023-04-30T19:13:26.737Z,99.90
2023-04-30T19:15:55.824Z,99.90
2023-04-30T19:18:25.189Z,99.90
2023-04-30T19:20:59.556Z,99.90
2023-04-30T19:23:30.717Z,99.90
2023-04-30T19:25:58.918Z,99.90
2023-04-30T19:28:27.045Z,99.90
2023-04-30T19:30:56.040Z,99.90
2023-04-30T19:33:27.034Z,99.90
2023-04-30T19:35:57.764Z,99.90
2023-04-30T19:38:25.859Z,99.90
2023-04-30T19:40:55.692Z,99.90
2023-04-30T19:43:24.298Z,99.90
2023-04-30T19:45:55.202Z,99.90
2023-04-30T19:48:26.063Z,99.90
2023-04-30T19:50:54.954Z,99.90
2023-04-30T19:53:25.554Z,99.90
2023-04-30T19:55:59.803Z,99.90
2023-04-30T19:58:27.707Z,99.90
2023-04-30T20:00:55.873Z,99.90
2023-04-30T20:03:25.925Z,99.90
2023-04-30T20:05:54.091Z,99.90
2023-04-30T20:08:22.876Z,99.90
2023-04-30T20:10:50.821Z,99.90
2023-04-30T20:13:18.819Z,99.90
2023-04-30T20:15:47.338Z,99.90
2023-04-30T20:18:15.451Z,99.90
2023-04-30T20:20:44.861Z,99.90
2023-04-30T20:23:14.377Z,99.90
2023-04-30T20:25:45.288Z,99.90
2023-04-30T20:28:14.156Z,99.90
2023-04-30T20:30:43.391Z,99.90
2023-04-30T20:33:11.935Z,99.90
2023-04-30T20:35:41.400Z,99.90
2023-04-30T20:38:10.846Z,99.90
2023-04-30T20:40:40.498Z,99.90
2023-04-30T20:43:10.246Z,99.90
2023-04-30T20:45:38.193Z,99.90
2023-04-30T20:48:07.398Z,99.90
2023-04-30T20:50:35.470Z,99.90
2023-04-30T20:53:03.588Z,99.90
2023-04-30T20:55:32.828Z,99.90
2023-04-30T20:58:00.804Z,99.90
2023-04-30T21:00:28.999Z,99.90
2023-04-30T21:02:57.205Z,99.90
2023-04-30T21:05:25.207Z,99.90
2023-04-30T21:07:53.264Z,99.90
2023-04-30T21:10:21.554Z,99.90
2023-04-30T21:12:50.800Z,99.90
2023-04-30T21:15:18.782Z,99.90
2023-04-30T21:17:46.941Z,99.90
2023-04-30T21:20:14.993Z,99.90
2023-04-30T21:22:42.880Z,99.90
2023-04-30T21:25:12.254Z,99.90
2023-04-30T21:27:40.435Z,99.90
2023-04-30T21:30:10.810Z,99.90
2023-04-30T21:32:39.415Z,99.90
2023-04-30T21:35:08.114Z,99.90
2023-04-30T21:37:36.394Z,99.90
2023-04-30T21:40:04.757Z,99.90
2023-04-30T21:42:33.848Z,99.90
2023-04-30T21:45:01.975Z,99.90
2023-04-30T21:47:31.706Z,99.90
2023-04-30T21:49:59.753Z,99.90
2023-04-30T21:52:27.694Z,99.90
2023-04-30T21:54:55.785Z,99.90
2023-04-30T21:57:24.334Z,99.90
2023-04-30T21:59:52.202Z,99.90
2023-04-30T22:02:24.305Z,99.90
2023-04-30T22:04:55.466Z,99.90
2023-04-30T22:07:23.958Z,99.90
2023-04-30T22:09:52.776Z,99.90
2023-04-30T22:12:21.614Z,99.90
2023-04-30T22:14:53.187Z,99.90
2023-04-30T22:17:21.857Z,99.90
2023-04-30T22:19:49.815Z,99.90
2023-04-30T22:22:19.082Z,99.90
2023-04-30T22:24:47.264Z,99.90
2023-04-30T22:27:15.419Z,99.90
2023-04-30T22:29:43.781Z,99.90
2023-04-30T22:32:12.161Z,99.90
2023-04-30T22:34:41.874Z,99.90
2023-04-30T22:37:11.418Z,99.90
2023-04-30T22:39:40.889Z,99.90
2023-04-30T22:42:10.119Z,99.90
2023-04-30T22:44:38.726Z,99.90
2023-04-30T22:47:06.966Z,99.90
2023-04-30T22:49:37.212Z,99.90
2023-04-30T22:52:05.347Z,99.90
2023-04-30T22:54:33.235Z,99.90
2023-04-30T22:57:03.088Z,99.90
2023-04-30T22:59:31.009Z,99.90
2023-04-30T23:01:59.768Z,99.90
2023-04-30T23:04:28.394Z,99.90
2023-04-30T23:06:57.203Z,99.90
2023-04-30T23:09:25.092Z,99.90
2023-04-30T23:11:52.917Z,99.90
2023-04-30T23:14:22.147Z,99.90
2023-04-30T23:16:49.986Z,99.90
2023-04-30T23:19:17.917Z,99.90
2023-04-30T23:21:45.829Z,99.90
2023-04-30T23:24:13.689Z,99.90
2023-04-30T23:26:41.582Z,99.90
2023-04-30T23:29:09.395Z,99.90
2023-04-30T23:31:38.922Z,99.90
2023-04-30T23:34:06.758Z,99.90
2023-04-30T23:36:34.725Z,99.90
2023-04-30T23:39:02.620Z,99.90
2023-04-30T23:41:30.577Z,99.90
2023-04-30T23:43:58.458Z,99.90
2023-04-30T23:46:26.405Z,99.90
2023-04-30T23:48:55.771Z,99.90
2023-04-30T23:51:23.683Z,99.90
2023-04-30T23:53:51.612Z,99.90
2023-04-30T23:56:19.497Z,99.90
2023-04-30T23:58:47.367Z,99.90
